sensor_id;sensor_type;location;lat;lon;timestamp;temperature;humidity
17215;DHT22;8723;51.502;6.918;2023-04-01T00:00:23;9.60;99.90
17215;DHT22;8723;51.502;6.918;2023-04-01T00:02:50;9.60;99.90
17215;DHT22;8723;51.502;6.918;2023-04-01T00:05:17;9.60;99.90
17215;DHT22;8723;51.502;6.918;2023-04-01T00:07:44;9.60;99.90
17215;DHT22;8723;51.502;6.918;2023-04-01T00:10:12;9.60;99.90
17215;DHT22;8723;51.502;6.918;2023-04-01T00:12:40;9.60;99.90
17215;DHT22;8723;51.502;6.918;2023-04-01T00:15:10;9.60;99.90
17215;DHT22;8723;51.502;6.918;2023-04-01T00:17:38;9.60;99.90
17215;DHT22;8723;51.502;6.918;2023-04-01T00:20:07;9.60;99.90
17215;DHT22;8723;51.502;6.918;2023-04-01T00:22:35;9.60;99.90
17215;DHT22;8723;51.502;6.918;2023-04-01T00:25:02;9.60;99.90
17215;DHT22;8723;51.502;6.918;2023-04-01T00:27:29;9.70;99.90
17215;DHT22;8723;51.502;6.918;2023-04-01T00:29:56;9.60;99.90
17215;DHT22;8723;51.502;6.918;2023-04-01T00:32:23;9.60;99.90
17215;DHT22;8723;51.502;6.918;2023-04-01T00:34:52;9.60;99.90
17215;DHT22;8723;51.502;6.918;2023-04-01T00:37:20;9.60;99.90
17215;DHT22;8723;51.502;6.918;2023-04-01T00:39:47;9.60;99.90
17215;DHT22;8723;51.502;6.918;2023-04-01T00:42:14;9.60;99.90
17215;DHT22;8723;51.502;6.918;2023-04-01T00:44:42;9.60;99.90
17215;DHT22;8723;51.502;6.918;2023-04-01T00:47:09;9.60;99.90
17215;DHT22;8723;51.502;6.918;2023-04-01T00:49:39;9.60;99.90
17215;DHT22;8723;51.502;6.918;2023-04-01T00:52:11;9.60;99.90
17215;DHT22;8723;51.502;6.918;2023-04-01T00:54:41;9.60;99.90
17215;DHT22;8723;51.502;6.918;2023-04-01T00:57:13;9.60;99.90
17215;DHT22;8723;51.502;6.918;2023-04-01T00:59:43;9.60;99.90
17215;DHT22;8723;51.502;6.918;2023-04-01T01:02:12;9.60;99.90
17215;DHT22;8723;51.502;6.918;2023-04-01T01:04:39;9.50;99.90
17215;DHT22;8723;51.502;6.918;2023-04-01T01:07:15;9.60;99.90
17215;DHT22;8723;51.502;6.918;2023-04-01T01:09:49;9.50;99.90
17215;DHT22;8723;51.502;6.918;2023-04-01T01:12:24;9.50;99.90
17215;DHT22;8723;51.502;6.918;2023-04-01T01:14:57;9.50;99.90
17215;DHT22;8723;51.502;6.918;2023-04-01T01:17:35;9.50;99.90
17215;DHT22;8723;51.502;6.918;2023-04-01T01:20:33;9.50;99.90
17215;DHT22;8723;51.502;6.918;2023-04-01T01:23:29;9.50;99.90
17215;DHT22;8723;51.502;6.918;2023-04-01T01:26:21;9.50;99.90
17215;DHT22;8723;51.502;6.918;2023-04-01T01:28:58;9.50;99.90
17215;DHT22;8723;51.502;6.918;2023-04-01T01:31:36;9.50;99.90
17215;DHT22;8723;51.502;6.918;2023-04-01T01:34:12;9.50;99.90
17215;DHT22;8723;51.502;6.918;2023-04-01T01:36:45;9.50;99.90
17215;DHT22;8723;51.502;6.918;2023-04-01T01:39:16;9.50;99.90
17215;DHT22;8723;51.502;6.918;2023-04-01T01:41:45;9.50;99.90
17215;DHT22;8723;51.502;6.918;2023-04-01T01:44:15;9.50;99.90
17215;DHT22;8723;51.502;6.918;2023-04-01T01:46:43;9.50;99.90
17215;DHT22;8723;51.502;6.918;2023-04-01T01:49:12;9.50;99.90
17215;DHT22;8723;51.502;6.918;2023-04-01T01:51:40;9.50;99.90
17215;DHT22;8723;51.502;6.918;2023-04-01T01:54:13;9.50;99.90
17215;DHT22;8723;51.502;6.918;2023-04-01T01:56:41;9.50;99.90
17215;DHT22;8723;51.502;6.918;2023-04-01T01:59:11;9.50;99.90
17215;DHT22;8723;51.502;6.918;2023-04-01T02:01:41;9.50;99.90
17215;DHT22;8723;51.502;6.918;2023-04-01T02:04:10;9.50;99.90
17215;DHT22;8723;51.502;6.918;2023-04-01T02:06:42;9.50;99.90
17215;DHT22;8723;51.502;6.918;2023-04-01T02:09:10;9.50;99.90
17215;DHT22;8723;51.502;6.918;2023-04-01T02:11:42;9.50;99.90
17215;DHT22;8723;51.502;6.918;2023-04-01T02:14:13;9.50;99.90
17215;DHT22;8723;51.502;6.918;2023-04-01T02:16:46;9.50;99.90
17215;DHT22;8723;51.502;6.918;2023-04-01T02:19:16;9.50;99.90
17215;DHT22;8723;51.502;6.918;2023-04-01T02:21:49;9.50;99.90
17215;DHT22;8723;51.502;6.918;2023-04-01T02:24:18;9.50;99.90
17215;DHT22;8723;51.502;6.918;2023-04-01T02:26:50;9.50;99.90
17215;DHT22;8723;51.502;6.918;2023-04-01T02:29:18;9.50;99.90
17215;DHT22;8723;51.502;6.918;2023-04-01T02:31:46;9.50;99.90
17215;DHT22;8723;51.502;6.918;2023-04-01T02:34:13;9.50;99.90
17215;DHT22;8723;51.502;6.918;2023-04-01T02:36:41;9.50;99.90
17215;DHT22;8723;51.502;6.918;2023-04-01T02:39:08;9.50;99.90
17215;DHT22;8723;51.502;6.918;2023-04-01T02:41:39;9.50;99.90
17215;DHT22;8723;51.502;6.918;2023-04-01T02:44:08;9.40;99.90
17215;DHT22;8723;51.502;6.918;2023-04-01T02:46:35;9.50;99.90
17215;DHT22;8723;51.502;6.918;2023-04-01T02:49:02;9.40;99.90
17215;DHT22;8723;51.502;6.918;2023-04-01T02:51:29;9.40;99.90
17215;DHT22;8723;51.502;6.918;2023-04-01T02:53:56;9.40;99.90
17215;DHT22;8723;51.502;6.918;2023-04-01T02:56:23;9.40;99.90
17215;DHT22;8723;51.502;6.918;2023-04-01T02:58:51;9.30;99.90
17215;DHT22;8723;51.502;6.918;2023-04-01T03:01:20;9.30;99.90
17215;DHT22;8723;51.502;6.918;2023-04-01T03:03:47;9.30;99.90
17215;DHT22;8723;51.502;6.918;2023-04-01T03:06:15;9.30;99.90
17215;DHT22;8723;51.502;6.918;2023-04-01T03:08:43;9.30;99.90
17215;DHT22;8723;51.502;6.918;2023-04-01T03:11:10;9.30;99.90
17215;DHT22;8723;51.502;6.918;2023-04-01T03:13:37;9.30;99.90
17215;DHT22;8723;51.502;6.918;2023-04-01T03:16:04;9.30;99.90
17215;DHT22;8723;51.502;6.918;2023-04-01T03:18:32;9.30;99.90
17215;DHT22;8723;51.502;6.918;2023-04-01T03:21:12;9.30;99.90
17215;DHT22;8723;51.502;6.918;2023-04-01T03:23:39;9.30;99.90
17215;DHT22;8723;51.502;6.918;2023-04-01T03:26:06;9.30;99.90
17215;DHT22;8723;51.502;6.918;2023-04-01T03:28:33;9.30;99.90
17215;DHT22;8723;51.502;6.918;2023-04-01T03:31:00;9.30;99.90
17215;DHT22;8723;51.502;6.918;2023-04-01T03:33:27;9.30;99.90
17215;DHT22;8723;51.502;6.918;2023-04-01T03:35:56;9.30;99.90
17215;DHT22;8723;51.502;6.918;2023-04-01T03:38:22;9.30;99.90
17215;DHT22;8723;51.502;6.918;2023-04-01T03:40:49;9.30;99.90
17215;DHT22;8723;51.502;6.918;2023-04-01T03:43:16;9.40;99.90
17215;DHT22;8723;51.502;6.918;2023-04-01T03:45:44;9.30;99.90
17215;DHT22;8723;51.502;6.918;2023-04-01T03:48:11;9.30;99.90
17215;DHT22;8723;51.502;6.918;2023-04-01T03:50:38;9.30;99.90
17215;DHT22;8723;51.502;6.918;2023-04-01T03:53:06;9.30;99.90
17215;DHT22;8723;51.502;6.918;2023-04-01T03:55:35;9.40;99.90
17215;DHT22;8723;51.502;6.918;2023-04-01T03:58:01;9.40;99.90
17215;DHT22;8723;51.502;6.918;2023-04-01T04:00:28;9.40;99.90
17215;DHT22;8723;51.502;6.918;2023-04-01T04:02:56;9.40;99.90
17215;DHT22;8723;51.502;6.918;2023-04-01T04:05:23;9.40;99.90
17215;DHT22;8723;51.502;6.918;2023-04-01T04:07:50;9.40;99.90
17215;DHT22;8723;51.502;6.918;2023-04-01T04:10:19;9.40;99.90
17215;DHT22;8723;51.502;6.918;2023-04-01T04:12:49;9.40;99.90
17215;DHT22;8723;51.502;6.918;2023-04-01T04:15:16;9.40;99.90
17215;DHT22;8723;51.502;6.918;2023-04-01T04:17:44;9.40;99.90
17215;DHT22;8723;51.502;6.918;2023-04-01T04:20:11;9.40;99.90
17215;DHT22;8723;51.502;6.918;2023-04-01T04:22:38;9.40;99.90
17215;DHT22;8723;51.502;6.918;2023-04-01T04:25:06;9.40;99.90
17215;DHT22;8723;51.502;6.918;2023-04-01T04:27:34;9.40;99.90
17215;DHT22;8723;51.502;6.918;2023-04-01T04:30:02;9.40;99.90
17215;DHT22;8723;51.502;6.918;2023-04-01T04:32:30;9.40;99.90
17215;DHT22;8723;51.502;6.918;2023-04-01T04:34:57;9.40;99.90
17215;DHT22;8723;51.502;6.918;2023-04-01T04:37:24;9.40;99.90
17215;DHT22;8723;51.502;6.918;2023-04-01T04:39:51;9.40;99.90
17215;DHT22;8723;51.502;6.918;2023-04-01T04:42:18;9.40;99.90
17215;DHT22;8723;51.502;6.918;2023-04-01T04:44:46;9.40;99.90
17215;DHT22;8723;51.502;6.918;2023-04-01T04:47:13;9.40;99.90
17215;DHT22;8723;51.502;6.918;2023-04-01T04:49:41;9.40;99.90
17215;DHT22;8723;51.502;6.918;2023-04-01T04:52:07;9.40;99.90
17215;DHT22;8723;51.502;6.918;2023-04-01T04:54:34;9.40;99.90
17215;DHT22;8723;51.502;6.918;2023-04-01T04:57:01;9.40;99.90
17215;DHT22;8723;51.502;6.918;2023-04-01T04:59:28;9.40;99.90
17215;DHT22;8723;51.502;6.918;2023-04-01T05:01:56;9.40;99.90
17215;DHT22;8723;51.502;6.918;2023-04-01T05:04:23;9.40;99.90
17215;DHT22;8723;51.502;6.918;2023-04-01T05:06:50;9.40;99.90
17215;DHT22;8723;51.502;6.918;2023-04-01T05:09:17;9.40;99.90
17215;DHT22;8723;51.502;6.918;2023-04-01T05:11:44;9.40;99.90
17215;DHT22;8723;51.502;6.918;2023-04-01T05:14:13;9.40;99.90
17215;DHT22;8723;51.502;6.918;2023-04-01T05:16:39;9.40;99.90
17215;DHT22;8723;51.502;6.918;2023-04-01T05:19:08;9.40;99.90
17215;DHT22;8723;51.502;6.918;2023-04-01T05:21:35;9.40;99.90
17215;DHT22;8723;51.502;6.918;2023-04-01T05:24:02;9.40;99.90
17215;DHT22;8723;51.502;6.918;2023-04-01T05:26:29;9.40;99.90
17215;DHT22;8723;51.502;6.918;2023-04-01T05:28:58;9.40;99.90
17215;DHT22;8723;51.502;6.918;2023-04-01T05:31:24;9.40;99.90
17215;DHT22;8723;51.502;6.918;2023-04-01T05:33:51;9.40;99.90
17215;DHT22;8723;51.502;6.918;2023-04-01T05:36:21;9.40;99.90
17215;DHT22;8723;51.502;6.918;2023-04-01T05:38:47;9.40;99.90
17215;DHT22;8723;51.502;6.918;2023-04-01T05:41:15;9.40;99.90
17215;DHT22;8723;51.502;6.918;2023-04-01T05:43:42;9.40;99.90
17215;DHT22;8723;51.502;6.918;2023-04-01T05:46:08;9.40;99.90
17215;DHT22;8723;51.502;6.918;2023-04-01T05:48:35;9.40;99.90
17215;DHT22;8723;51.502;6.918;2023-04-01T05:51:03;9.40;99.90
17215;DHT22;8723;51.502;6.918;2023-04-01T05:53:32;9.40;99.90
17215;DHT22;8723;51.502;6.918;2023-04-01T05:56:02;9.40;99.90
17215;DHT22;8723;51.502;6.918;2023-04-01T05:58:29;9.40;99.90
17215;DHT22;8723;51.502;6.918;2023-04-01T06:01:00;9.40;99.90
17215;DHT22;8723;51.502;6.918;2023-04-01T06:03:27;9.40;99.90
17215;DHT22;8723;51.502;6.918;2023-04-01T06:05:56;9.40;99.90
17215;DHT22;8723;51.502;6.918;2023-04-01T06:08:24;9.40;99.90
17215;DHT22;8723;51.502;6.918;2023-04-01T06:11:04;9.40;99.90
17215;DHT22;8723;51.502;6.918;2023-04-01T06:13:47;9.40;99.90
17215;DHT22;8723;51.502;6.918;2023-04-01T06:16:22;9.40;99.90
17215;DHT22;8723;51.502;6.918;2023-04-01T06:19:11;9.40;99.90
17215;DHT22;8723;51.502;6.918;2023-04-01T06:24:59;9.40;99.90
17215;DHT22;8723;51.502;6.918;2023-04-01T06:27:45;9.40;99.90
17215;DHT22;8723;51.502;6.918;2023-04-01T06:30:30;9.40;99.90
17215;DHT22;8723;51.502;6.918;2023-04-01T06:36:23;9.40;99.90
17215;DHT22;8723;51.502;6.918;2023-04-01T06:39:06;9.40;99.90
17215;DHT22;8723;51.502;6.918;2023-04-01T06:42:06;9.50;99.90
17215;DHT22;8723;51.502;6.918;2023-04-01T06:44:46;9.50;99.90
17215;DHT22;8723;51.502;6.918;2023-04-01T06:47:25;9.50;99.90
17215;DHT22;8723;51.502;6.918;2023-04-01T06:49:59;9.50;99.90
17215;DHT22;8723;51.502;6.918;2023-04-01T06:52:39;9.50;99.90
17215;DHT22;8723;51.502;6.918;2023-04-01T06:55:27;9.50;99.90
17215;DHT22;8723;51.502;6.918;2023-04-01T06:58:00;9.50;99.90
17215;DHT22;8723;51.502;6.918;2023-04-01T07:00:32;9.50;99.90
17215;DHT22;8723;51.502;6.918;2023-04-01T07:03:09;9.50;99.90
17215;DHT22;8723;51.502;6.918;2023-04-01T07:05:37;9.50;99.90
17215;DHT22;8723;51.502;6.918;2023-04-01T07:08:06;9.50;99.90
17215;DHT22;8723;51.502;6.918;2023-04-01T07:10:42;9.50;99.90
17215;DHT22;8723;51.502;6.918;2023-04-01T07:13:15;9.50;99.90
17215;DHT22;8723;51.502;6.918;2023-04-01T07:15:51;9.50;99.90
17215;DHT22;8723;51.502;6.918;2023-04-01T07:18:25;9.50;99.90
17215;DHT22;8723;51.502;6.918;2023-04-01T07:20:55;9.50;99.90
17215;DHT22;8723;51.502;6.918;2023-04-01T07:23:24;9.50;99.90
17215;DHT22;8723;51.502;6.918;2023-04-01T07:25:53;9.50;99.90
17215;DHT22;8723;51.502;6.918;2023-04-01T07:28:21;9.50;99.90
17215;DHT22;8723;51.502;6.918;2023-04-01T07:30:57;9.50;99.90
17215;DHT22;8723;51.502;6.918;2023-04-01T07:33:34;9.60;99.90
17215;DHT22;8723;51.502;6.918;2023-04-01T07:36:07;9.60;99.90
17215;DHT22;8723;51.502;6.918;2023-04-01T07:38:47;9.60;99.90
17215;DHT22;8723;51.502;6.918;2023-04-01T07:41:26;9.60;99.90
17215;DHT22;8723;51.502;6.918;2023-04-01T07:44:05;9.60;99.90
17215;DHT22;8723;51.502;6.918;2023-04-01T07:46:49;9.50;99.90
17215;DHT22;8723;51.502;6.918;2023-04-01T07:49:23;9.60;99.90
17215;DHT22;8723;51.502;6.918;2023-04-01T07:51:56;9.60;99.90
17215;DHT22;8723;51.502;6.918;2023-04-01T07:54:31;9.60;99.90
17215;DHT22;8723;51.502;6.918;2023-04-01T07:57:03;9.60;99.90
17215;DHT22;8723;51.502;6.918;2023-04-01T07:59:37;9.60;99.90
17215;DHT22;8723;51.502;6.918;2023-04-01T08:02:15;9.60;99.90
17215;DHT22;8723;51.502;6.918;2023-04-01T08:04:55;9.60;99.90
17215;DHT22;8723;51.502;6.918;2023-04-01T08:07:32;9.60;99.90
17215;DHT22;8723;51.502;6.918;2023-04-01T08:10:06;9.60;99.90
17215;DHT22;8723;51.502;6.918;2023-04-01T08:12:44;9.60;99.90
17215;DHT22;8723;51.502;6.918;2023-04-01T08:15:21;9.60;99.90
17215;DHT22;8723;51.502;6.918;2023-04-01T08:18:02;9.60;99.90
17215;DHT22;8723;51.502;6.918;2023-04-01T08:20:34;9.60;99.90
17215;DHT22;8723;51.502;6.918;2023-04-01T08:23:07;9.60;99.90
17215;DHT22;8723;51.502;6.918;2023-04-01T08:25:39;9.60;99.90
17215;DHT22;8723;51.502;6.918;2023-04-01T08:28:13;9.60;99.90
17215;DHT22;8723;51.502;6.918;2023-04-01T08:30:45;9.60;99.90
17215;DHT22;8723;51.502;6.918;2023-04-01T08:33:19;9.60;99.90
17215;DHT22;8723;51.502;6.918;2023-04-01T08:35:50;9.60;99.90
17215;DHT22;8723;51.502;6.918;2023-04-01T08:38:21;9.60;99.90
17215;DHT22;8723;51.502;6.918;2023-04-01T08:41:00;9.60;99.90
17215;DHT22;8723;51.502;6.918;2023-04-01T08:43:50;9.60;99.90
17215;DHT22;8723;51.502;6.918;2023-04-01T08:46:32;9.60;99.90
17215;DHT22;8723;51.502;6.918;2023-04-01T08:49:19;9.60;99.90
17215;DHT22;8723;51.502;6.918;2023-04-01T08:52:15;9.60;99.90
17215;DHT22;8723;51.502;6.918;2023-04-01T08:54:55;9.60;99.90
17215;DHT22;8723;51.502;6.918;2023-04-01T08:57:38;9.70;99.90
17215;DHT22;8723;51.502;6.918;2023-04-01T09:00:15;9.70;99.90
17215;DHT22;8723;51.502;6.918;2023-04-01T09:03:16;9.70;99.90
17215;DHT22;8723;51.502;6.918;2023-04-01T09:06:21;9.70;99.90
17215;DHT22;8723;51.502;6.918;2023-04-01T09:11:59;9.70;99.90
17215;DHT22;8723;51.502;6.918;2023-04-01T09:14:58;9.80;99.90
17215;DHT22;8723;51.502;6.918;2023-04-01T09:17:40;9.80;99.90
17215;DHT22;8723;51.502;6.918;2023-04-01T09:20:28;9.80;99.90
17215;DHT22;8723;51.502;6.918;2023-04-01T09:23:12;9.80;99.90
17215;DHT22;8723;51.502;6.918;2023-04-01T09:25:51;9.80;99.90
17215;DHT22;8723;51.502;6.918;2023-04-01T09:28:28;9.80;99.90
17215;DHT22;8723;51.502;6.918;2023-04-01T09:31:31;9.90;99.90
17215;DHT22;8723;51.502;6.918;2023-04-01T09:34:43;10.00;99.90
17215;DHT22;8723;51.502;6.918;2023-04-01T09:37:19;10.00;99.90
17215;DHT22;8723;51.502;6.918;2023-04-01T09:40:08;10.00;99.90
17215;DHT22;8723;51.502;6.918;2023-04-01T09:42:44;10.00;99.90
17215;DHT22;8723;51.502;6.918;2023-04-01T09:45:27;10.00;99.90
17215;DHT22;8723;51.502;6.918;2023-04-01T09:48:06;10.00;99.90
17215;DHT22;8723;51.502;6.918;2023-04-01T09:50:39;10.00;99.90
17215;DHT22;8723;51.502;6.918;2023-04-01T09:53:18;10.00;99.90
17215;DHT22;8723;51.502;6.918;2023-04-01T09:56:19;10.00;99.90
17215;DHT22;8723;51.502;6.918;2023-04-01T09:59:15;10.00;99.90
17215;DHT22;8723;51.502;6.918;2023-04-01T10:02:14;10.10;99.90
17215;DHT22;8723;51.502;6.918;2023-04-01T10:08:19;10.10;99.90
17215;DHT22;8723;51.502;6.918;2023-04-01T10:23:02;10.20;99.90
17215;DHT22;8723;51.502;6.918;2023-04-01T10:29:27;10.30;99.90
17215;DHT22;8723;51.502;6.918;2023-04-01T10:32:38;10.20;99.90
17215;DHT22;8723;51.502;6.918;2023-04-01T10:35:44;10.20;99.90
17215;DHT22;8723;51.502;6.918;2023-04-01T10:38:59;10.20;99.90
17215;DHT22;8723;51.502;6.918;2023-04-01T10:42:16;10.20;99.90
17215;DHT22;8723;51.502;6.918;2023-04-01T10:48:20;10.30;99.90
17215;DHT22;8723;51.502;6.918;2023-04-01T10:51:11;10.20;99.90
17215;DHT22;8723;51.502;6.918;2023-04-01T10:56:54;10.20;99.90
17215;DHT22;8723;51.502;6.918;2023-04-01T10:59:49;10.20;99.90
17215;DHT22;8723;51.502;6.918;2023-04-01T11:02:50;10.20;99.90
17215;DHT22;8723;51.502;6.918;2023-04-01T11:09:19;10.20;99.90
17215;DHT22;8723;51.502;6.918;2023-04-01T11:12:19;10.20;99.90
17215;DHT22;8723;51.502;6.918;2023-04-01T11:15:16;10.30;99.90
17215;DHT22;8723;51.502;6.918;2023-04-01T11:21:29;10.30;99.90
17215;DHT22;8723;51.502;6.918;2023-04-01T11:27:10;10.40;99.90
17215;DHT22;8723;51.502;6.918;2023-04-01T11:32:38;10.40;99.90
17215;DHT22;8723;51.502;6.918;2023-04-01T11:35:25;10.40;99.90
17215;DHT22;8723;51.502;6.918;2023-04-01T11:38:07;10.40;99.90
17215;DHT22;8723;51.502;6.918;2023-04-01T11:40:41;10.30;99.90
17215;DHT22;8723;51.502;6.918;2023-04-01T11:43:16;10.40;99.90
17215;DHT22;8723;51.502;6.918;2023-04-01T11:45:50;10.50;99.90
17215;DHT22;8723;51.502;6.918;2023-04-01T11:48:49;10.50;99.90
17215;DHT22;8723;51.502;6.918;2023-04-01T11:51:29;10.40;99.90
17215;DHT22;8723;51.502;6.918;2023-04-01T11:54:05;10.40;99.90
17215;DHT22;8723;51.502;6.918;2023-04-01T11:56:58;10.40;99.90
17215;DHT22;8723;51.502;6.918;2023-04-01T11:59:47;10.40;99.90
17215;DHT22;8723;51.502;6.918;2023-04-01T12:02:23;10.40;99.90
17215;DHT22;8723;51.502;6.918;2023-04-01T12:05:00;10.40;99.90
17215;DHT22;8723;51.502;6.918;2023-04-01T12:07:45;10.40;99.90
17215;DHT22;8723;51.502;6.918;2023-04-01T12:10:21;10.40;99.90
17215;DHT22;8723;51.502;6.918;2023-04-01T12:12:58;10.40;99.90
17215;DHT22;8723;51.502;6.918;2023-04-01T12:15:32;10.40;99.90
17215;DHT22;8723;51.502;6.918;2023-04-01T12:18:10;10.50;99.90
17215;DHT22;8723;51.502;6.918;2023-04-01T12:20:48;10.50;99.90
17215;DHT22;8723;51.502;6.918;2023-04-01T12:23:40;10.50;99.90
17215;DHT22;8723;51.502;6.918;2023-04-01T12:29:18;10.60;99.90
17215;DHT22;8723;51.502;6.918;2023-04-01T12:31:53;10.70;99.90
17215;DHT22;8723;51.502;6.918;2023-04-01T12:37:28;10.70;99.90
17215;DHT22;8723;51.502;6.918;2023-04-01T12:40:16;10.60;99.90
17215;DHT22;8723;51.502;6.918;2023-04-01T12:42:55;10.60;99.90
17215;DHT22;8723;51.502;6.918;2023-04-01T12:45:30;10.60;99.90
17215;DHT22;8723;51.502;6.918;2023-04-01T12:48:06;10.60;99.90
17215;DHT22;8723;51.502;6.918;2023-04-01T12:50:58;10.60;99.90
17215;DHT22;8723;51.502;6.918;2023-04-01T12:54:02;10.60;99.90
17215;DHT22;8723;51.502;6.918;2023-04-01T12:56:43;10.60;99.90
17215;DHT22;8723;51.502;6.918;2023-04-01T12:59:25;10.60;99.90
17215;DHT22;8723;51.502;6.918;2023-04-01T13:02:13;10.60;99.90
17215;DHT22;8723;51.502;6.918;2023-04-01T13:07:43;10.40;99.90
17215;DHT22;8723;51.502;6.918;2023-04-01T13:10:20;10.50;99.90
17215;DHT22;8723;51.502;6.918;2023-04-01T13:13:05;10.40;99.90
17215;DHT22;8723;51.502;6.918;2023-04-01T13:15:41;10.40;99.90
17215;DHT22;8723;51.502;6.918;2023-04-01T13:18:20;10.50;99.90
17215;DHT22;8723;51.502;6.918;2023-04-01T13:20:56;10.50;99.90
17215;DHT22;8723;51.502;6.918;2023-04-01T13:23:39;10.50;99.90
17215;DHT22;8723;51.502;6.918;2023-04-01T13:26:18;10.50;99.90
17215;DHT22;8723;51.502;6.918;2023-04-01T13:28:52;10.60;99.90
17215;DHT22;8723;51.502;6.918;2023-04-01T13:31:49;10.50;99.90
17215;DHT22;8723;51.502;6.918;2023-04-01T13:34:28;10.50;99.90
17215;DHT22;8723;51.502;6.918;2023-04-01T13:37:09;10.50;99.90
17215;DHT22;8723;51.502;6.918;2023-04-01T13:39:48;10.50;99.90
17215;DHT22;8723;51.502;6.918;2023-04-01T13:42:24;10.50;99.90
17215;DHT22;8723;51.502;6.918;2023-04-01T13:44:56;10.40;99.90
17215;DHT22;8723;51.502;6.918;2023-04-01T13:47:55;10.40;99.90
17215;DHT22;8723;51.502;6.918;2023-04-01T13:50:37;10.30;99.90
17215;DHT22;8723;51.502;6.918;2023-04-01T13:53:35;10.30;99.90
17215;DHT22;8723;51.502;6.918;2023-04-01T13:56:29;10.30;99.90
17215;DHT22;8723;51.502;6.918;2023-04-01T13:59:29;10.30;99.90
17215;DHT22;8723;51.502;6.918;2023-04-01T14:02:28;10.30;99.90
17215;DHT22;8723;51.502;6.918;2023-04-01T14:05:15;10.30;99.90
17215;DHT22;8723;51.502;6.918;2023-04-01T14:07:56;10.30;99.90
17215;DHT22;8723;51.502;6.918;2023-04-01T14:10:31;10.30;99.90
17215;DHT22;8723;51.502;6.918;2023-04-01T14:13:07;10.40;99.90
17215;DHT22;8723;51.502;6.918;2023-04-01T14:15:50;10.50;99.90
17215;DHT22;8723;51.502;6.918;2023-04-01T14:18:45;10.50;99.90
17215;DHT22;8723;51.502;6.918;2023-04-01T14:21:24;10.60;99.90
17215;DHT22;8723;51.502;6.918;2023-04-01T14:27:18;10.60;99.90
17215;DHT22;8723;51.502;6.918;2023-04-01T14:29:59;10.70;99.90
17215;DHT22;8723;51.502;6.918;2023-04-01T14:32:38;10.70;99.90
17215;DHT22;8723;51.502;6.918;2023-04-01T14:35:33;10.70;99.90
17215;DHT22;8723;51.502;6.918;2023-04-01T14:38:23;10.70;99.90
17215;DHT22;8723;51.502;6.918;2023-04-01T14:41:06;10.70;99.90
17215;DHT22;8723;51.502;6.918;2023-04-01T14:44:05;10.70;99.90
17215;DHT22;8723;51.502;6.918;2023-04-01T14:47:11;10.70;99.90
17215;DHT22;8723;51.502;6.918;2023-04-01T14:49:42;10.70;99.90
17215;DHT22;8723;51.502;6.918;2023-04-01T14:52:14;10.70;99.90
17215;DHT22;8723;51.502;6.918;2023-04-01T14:54:44;10.60;99.90
17215;DHT22;8723;51.502;6.918;2023-04-01T14:57:14;10.70;99.90
17215;DHT22;8723;51.502;6.918;2023-04-01T14:59:47;10.60;99.90
17215;DHT22;8723;51.502;6.918;2023-04-01T15:02:43;10.70;99.90
17215;DHT22;8723;51.502;6.918;2023-04-01T15:05:16;10.70;99.90
17215;DHT22;8723;51.502;6.918;2023-04-01T15:08:07;10.80;99.90
17215;DHT22;8723;51.502;6.918;2023-04-01T15:11:09;10.80;99.90
17215;DHT22;8723;51.502;6.918;2023-04-01T15:16:36;10.70;99.90
17215;DHT22;8723;51.502;6.918;2023-04-01T15:19:14;10.70;99.90
17215;DHT22;8723;51.502;6.918;2023-04-01T15:21:52;10.70;99.90
17215;DHT22;8723;51.502;6.918;2023-04-01T15:24:24;10.80;99.90
17215;DHT22;8723;51.502;6.918;2023-04-01T15:27:08;10.80;99.90
17215;DHT22;8723;51.502;6.918;2023-04-01T15:30:14;10.80;99.90
17215;DHT22;8723;51.502;6.918;2023-04-01T15:32:54;10.80;99.90
17215;DHT22;8723;51.502;6.918;2023-04-01T15:35:34;10.80;99.90
17215;DHT22;8723;51.502;6.918;2023-04-01T15:38:10;10.70;99.90
17215;DHT22;8723;51.502;6.918;2023-04-01T15:40:45;10.80;99.90
17215;DHT22;8723;51.502;6.918;2023-04-01T15:43:24;10.80;99.90
17215;DHT22;8723;51.502;6.918;2023-04-01T15:45:58;10.80;99.90
17215;DHT22;8723;51.502;6.918;2023-04-01T15:48:46;10.80;99.90
17215;DHT22;8723;51.502;6.918;2023-04-01T15:51:21;10.80;99.90
17215;DHT22;8723;51.502;6.918;2023-04-01T15:56:56;10.80;99.90
17215;DHT22;8723;51.502;6.918;2023-04-01T15:59:50;10.70;99.90
17215;DHT22;8723;51.502;6.918;2023-04-01T16:02:22;10.80;99.90
17215;DHT22;8723;51.502;6.918;2023-04-01T16:04:58;10.80;99.90
17215;DHT22;8723;51.502;6.918;2023-04-01T16:07:48;10.80;99.90
17215;DHT22;8723;51.502;6.918;2023-04-01T16:10:22;10.80;99.90
17215;DHT22;8723;51.502;6.918;2023-04-01T16:13:04;10.70;99.90
17215;DHT22;8723;51.502;6.918;2023-04-01T16:15:44;10.70;99.90
17215;DHT22;8723;51.502;6.918;2023-04-01T16:18:32;10.60;99.90
17215;DHT22;8723;51.502;6.918;2023-04-01T16:21:02;10.60;99.90
17215;DHT22;8723;51.502;6.918;2023-04-01T16:23:37;10.60;99.90
17215;DHT22;8723;51.502;6.918;2023-04-01T16:26:09;10.60;99.90
17215;DHT22;8723;51.502;6.918;2023-04-01T16:28:48;10.60;99.90
17215;DHT22;8723;51.502;6.918;2023-04-01T16:31:30;10.50;99.90
17215;DHT22;8723;51.502;6.918;2023-04-01T16:34:02;10.50;99.90
17215;DHT22;8723;51.502;6.918;2023-04-01T16:36:36;10.60;99.90
17215;DHT22;8723;51.502;6.918;2023-04-01T16:39:25;10.60;99.90
17215;DHT22;8723;51.502;6.918;2023-04-01T16:42:08;10.60;99.90
17215;DHT22;8723;51.502;6.918;2023-04-01T16:44:48;10.60;99.90
17215;DHT22;8723;51.502;6.918;2023-04-01T16:47:19;10.60;99.90
17215;DHT22;8723;51.502;6.918;2023-04-01T16:49:51;10.50;99.90
17215;DHT22;8723;51.502;6.918;2023-04-01T16:52:32;10.50;99.90
17215;DHT22;8723;51.502;6.918;2023-04-01T16:55:04;10.50;99.90
17215;DHT22;8723;51.502;6.918;2023-04-01T16:57:46;10.40;99.90
17215;DHT22;8723;51.502;6.918;2023-04-01T17:00:22;10.40;99.90
17215;DHT22;8723;51.502;6.918;2023-04-01T17:03:01;10.40;99.90
17215;DHT22;8723;51.502;6.918;2023-04-01T17:05:41;10.40;99.90
17215;DHT22;8723;51.502;6.918;2023-04-01T17:08:17;10.40;99.90
17215;DHT22;8723;51.502;6.918;2023-04-01T17:10:52;10.40;99.90
17215;DHT22;8723;51.502;6.918;2023-04-01T17:13:29;10.40;99.90
17215;DHT22;8723;51.502;6.918;2023-04-01T17:16:07;10.30;99.90
17215;DHT22;8723;51.502;6.918;2023-04-01T17:18:48;10.30;99.90
17215;DHT22;8723;51.502;6.918;2023-04-01T17:21:22;10.30;99.90
17215;DHT22;8723;51.502;6.918;2023-04-01T17:23:51;10.30;99.90
17215;DHT22;8723;51.502;6.918;2023-04-01T17:26:30;10.30;99.90
17215;DHT22;8723;51.502;6.918;2023-04-01T17:29:05;10.30;99.90
17215;DHT22;8723;51.502;6.918;2023-04-01T17:31:45;10.30;99.90
17215;DHT22;8723;51.502;6.918;2023-04-01T17:34:27;10.20;99.90
17215;DHT22;8723;51.502;6.918;2023-04-01T17:37:10;10.30;99.90
17215;DHT22;8723;51.502;6.918;2023-04-01T17:39:47;10.30;99.90
17215;DHT22;8723;51.502;6.918;2023-04-01T17:42:20;10.30;99.90
17215;DHT22;8723;51.502;6.918;2023-04-01T17:44:54;10.20;99.90
17215;DHT22;8723;51.502;6.918;2023-04-01T17:50:35;10.20;99.90
17215;DHT22;8723;51.502;6.918;2023-04-01T17:53:26;10.20;99.90
17215;DHT22;8723;51.502;6.918;2023-04-01T17:56:08;10.20;99.90
17215;DHT22;8723;51.502;6.918;2023-04-01T17:58:44;10.20;99.90
17215;DHT22;8723;51.502;6.918;2023-04-01T18:01:30;10.20;99.90
17215;DHT22;8723;51.502;6.918;2023-04-01T18:04:09;10.20;99.90